This is the latest recevied weather packets stored in our database for station/object VK5TRM-13. If no packets are shown the sender has not sent any weather packets the latest 10 day(s).
| Time | Temp. | Humidity | Pressure | Rain* | Wind** | Luminosity | Snow |
|---|---|---|---|---|---|---|---|
| 1778118304 | 13.89° C | 46% | 1030.1 hPa | 0 mm | - | - | - |
| 1778117405 | 13.33° C | 50% | 1030.3 hPa | 0 mm | - | - | - |
| 1778116505 | 13.33° C | 50% | 1030.3 hPa | 0 mm | - | - | - |
| 1778115605 | 12.78° C | 50% | 1030.2 hPa | 0 mm | - | - | - |
| 1778114704 | 12.78° C | 50% | 1030.2 hPa | 0 mm | - | - | - |
| 1778113804 | 12.22° C | 53% | 1030 hPa | 0 mm | - | - | - |
| 1778112904 | 12.22° C | 53% | 1030 hPa | 0 mm | - | - | - |
| 1778112005 | 11.67° C | 62% | 1029.9 hPa | 0.51 mm | - | - | - |
| 1778111105 | 11.67° C | 62% | 1029.9 hPa | 0.51 mm | - | - | - |
| 1778110205 | 10.56° C | 75% | 1029.7 hPa | 0.51 mm | - | - | - |
| 1778109304 | 10.56° C | 75% | 1029.7 hPa | 0.51 mm | - | - | - |
| 1778108405 | 9.44° C | 79% | 1029.2 hPa | 0.51 mm | - | - | - |
| 1778107505 | 9.44° C | 79% | 1029.2 hPa | 0.51 mm | - | - | - |
| 1778106605 | 8.33° C | 82% | 1028.8 hPa | 0.51 mm | - | - | - |
| 1778105705 | 8.33° C | 82% | 1028.8 hPa | 0.51 mm | - | - | - |
| 1778104805 | 7.78° C | 82% | 1028.5 hPa | 0.51 mm | - | - | - |
| 1778103904 | 7.78° C | 82% | 1028.5 hPa | 0.51 mm | - | - | - |
| 1778103004 | 8.33° C | 83% | 1027.9 hPa | 0.51 mm | - | - | - |
| 1778102105 | 8.33° C | 83% | 1027.9 hPa | 0.51 mm | - | - | - |
| 1778101205 | 7.78° C | 84% | 1027.7 hPa | 0.51 mm | - | - | - |
| 1778100305 | 7.78° C | 84% | 1027.7 hPa | 0.51 mm | - | - | - |
| 1778099405 | 7.78° C | 86% | 1027.6 hPa | 0.51 mm | - | - | - |
| 1778098505 | 7.78° C | 86% | 1027.6 hPa | 0.51 mm | - | - | - |
| 1778097605 | 7.22° C | 85% | 1027.3 hPa | 0.51 mm | - | - | - |
| 1778096704 | 7.22° C | 85% | 1027.3 hPa | 0.51 mm | - | - | - |
* Rain since midnight (hover to see other rain measurements)
** Current wind speed in m/s (hover to see current wind gust speed)